sensor_id;sensor_type;location;lat;lon;timestamp;temperature;humidity
63435;DHT22;68814;50.872;5.306;2023-05-20T00:01:03;13.30;67.90
63435;DHT22;68814;50.872;5.306;2023-05-20T00:03:28;13.30;67.30
63435;DHT22;68814;50.872;5.306;2023-05-20T00:05:54;13.20;67.90
63435;DHT22;68814;50.872;5.306;2023-05-20T00:08:20;13.20;68.10
63435;DHT22;68814;50.872;5.306;2023-05-20T00:10:45;13.20;68.10
63435;DHT22;68814;50.872;5.306;2023-05-20T00:13:11;13.10;68.20
63435;DHT22;68814;50.872;5.306;2023-05-20T00:15:37;13.00;68.40
63435;DHT22;68814;50.872;5.306;2023-05-20T00:18:03;13.00;69.30
63435;DHT22;68814;50.872;5.306;2023-05-20T00:20:29;12.90;69.90
63435;DHT22;68814;50.872;5.306;2023-05-20T00:22:55;12.90;69.00
63435;DHT22;68814;50.872;5.306;2023-05-20T00:25:20;12.90;69.40
63435;DHT22;68814;50.872;5.306;2023-05-20T00:27:46;12.80;69.90
63435;DHT22;68814;50.872;5.306;2023-05-20T00:30:12;12.80;69.60
63435;DHT22;68814;50.872;5.306;2023-05-20T00:32:38;12.80;70.90
63435;DHT22;68814;50.872;5.306;2023-05-20T00:35:04;12.70;70.70
63435;DHT22;68814;50.872;5.306;2023-05-20T00:37:30;12.70;70.30
63435;DHT22;68814;50.872;5.306;2023-05-20T00:39:56;12.70;70.10
63435;DHT22;68814;50.872;5.306;2023-05-20T00:42:27;12.60;70.10
63435;DHT22;68814;50.872;5.306;2023-05-20T00:44:53;12.60;70.50
63435;DHT22;68814;50.872;5.306;2023-05-20T00:47:39;12.60;70.00
63435;DHT22;68814;50.872;5.306;2023-05-20T00:50:05;12.60;70.60
63435;DHT22;68814;50.872;5.306;2023-05-20T00:52:31;12.60;70.60
63435;DHT22;68814;50.872;5.306;2023-05-20T00:54:57;12.50;70.80
63435;DHT22;68814;50.872;5.306;2023-05-20T00:57:24;12.50;71.50
63435;DHT22;68814;50.872;5.306;2023-05-20T00:59:50;12.40;71.50
63435;DHT22;68814;50.872;5.306;2023-05-20T01:02:16;12.40;70.90
63435;DHT22;68814;50.872;5.306;2023-05-20T01:04:42;12.30;72.20
63435;DHT22;68814;50.872;5.306;2023-05-20T01:07:12;12.30;71.60
63435;DHT22;68814;50.872;5.306;2023-05-20T01:09:39;12.20;71.70
63435;DHT22;68814;50.872;5.306;2023-05-20T01:12:11;12.20;72.20
63435;DHT22;68814;50.872;5.306;2023-05-20T01:14:45;12.10;72.20
63435;DHT22;68814;50.872;5.306;2023-05-20T01:17:14;12.10;72.30
63435;DHT22;68814;50.872;5.306;2023-05-20T01:19:46;12.10;73.20
63435;DHT22;68814;50.872;5.306;2023-05-20T01:22:13;12.00;72.80
63435;DHT22;68814;50.872;5.306;2023-05-20T01:24:43;12.00;73.30
63435;DHT22;68814;50.872;5.306;2023-05-20T01:27:10;11.90;74.10
63435;DHT22;68814;50.872;5.306;2023-05-20T01:29:39;11.90;74.20
63435;DHT22;68814;50.872;5.306;2023-05-20T01:32:26;11.90;73.90
63435;DHT22;68814;50.872;5.306;2023-05-20T01:34:53;11.80;73.40
63435;DHT22;68814;50.872;5.306;2023-05-20T01:37:21;11.80;74.60
63435;DHT22;68814;50.872;5.306;2023-05-20T01:39:49;11.70;74.80
63435;DHT22;68814;50.872;5.306;2023-05-20T01:42:16;11.70;74.50
63435;DHT22;68814;50.872;5.306;2023-05-20T01:44:42;11.70;74.90
63435;DHT22;68814;50.872;5.306;2023-05-20T01:47:08;11.60;75.80
63435;DHT22;68814;50.872;5.306;2023-05-20T01:49:34;11.60;76.10
63435;DHT22;68814;50.872;5.306;2023-05-20T01:51:59;11.50;76.30
63435;DHT22;68814;50.872;5.306;2023-05-20T01:54:25;11.50;76.80
63435;DHT22;68814;50.872;5.306;2023-05-20T01:56:51;11.50;75.70
63435;DHT22;68814;50.872;5.306;2023-05-20T01:59:16;11.40;76.70
63435;DHT22;68814;50.872;5.306;2023-05-20T02:01:42;11.40;76.40
63435;DHT22;68814;50.872;5.306;2023-05-20T02:04:08;11.30;76.80
63435;DHT22;68814;50.872;5.306;2023-05-20T02:06:34;11.40;77.00
63435;DHT22;68814;50.872;5.306;2023-05-20T02:08:59;11.30;77.30
63435;DHT22;68814;50.872;5.306;2023-05-20T02:11:25;11.30;78.00
63435;DHT22;68814;50.872;5.306;2023-05-20T02:13:51;11.20;77.60
63435;DHT22;68814;50.872;5.306;2023-05-20T02:16:17;11.20;77.60
63435;DHT22;68814;50.872;5.306;2023-05-20T02:18:42;11.10;77.90
63435;DHT22;68814;50.872;5.306;2023-05-20T02:21:08;11.10;78.30
63435;DHT22;68814;50.872;5.306;2023-05-20T02:23:34;11.10;78.10
63435;DHT22;68814;50.872;5.306;2023-05-20T02:26:00;11.00;78.70
63435;DHT22;68814;50.872;5.306;2023-05-20T02:28:26;11.00;78.30
63435;DHT22;68814;50.872;5.306;2023-05-20T02:30:52;11.00;78.80
63435;DHT22;68814;50.872;5.306;2023-05-20T02:33:18;10.90;79.20
63435;DHT22;68814;50.872;5.306;2023-05-20T02:35:44;10.90;79.20
63435;DHT22;68814;50.872;5.306;2023-05-20T02:38:11;10.80;80.00
63435;DHT22;68814;50.872;5.306;2023-05-20T02:40:37;10.80;80.30
63435;DHT22;68814;50.872;5.306;2023-05-20T02:43:03;10.80;79.80
63435;DHT22;68814;50.872;5.306;2023-05-20T02:45:28;10.70;80.10
63435;DHT22;68814;50.872;5.306;2023-05-20T02:47:54;10.70;81.30
63435;DHT22;68814;50.872;5.306;2023-05-20T02:50:20;10.70;80.50
63435;DHT22;68814;50.872;5.306;2023-05-20T02:52:45;10.60;80.70
63435;DHT22;68814;50.872;5.306;2023-05-20T02:55:11;10.60;81.60
63435;DHT22;68814;50.872;5.306;2023-05-20T02:57:38;10.60;81.10
63435;DHT22;68814;50.872;5.306;2023-05-20T03:00:08;10.50;82.00
63435;DHT22;68814;50.872;5.306;2023-05-20T03:02:38;10.50;82.50
63435;DHT22;68814;50.872;5.306;2023-05-20T03:05:04;10.50;82.30
63435;DHT22;68814;50.872;5.306;2023-05-20T03:07:30;10.50;82.10
63435;DHT22;68814;50.872;5.306;2023-05-20T03:09:56;10.40;82.60
63435;DHT22;68814;50.872;5.306;2023-05-20T03:12:24;10.40;83.00
63435;DHT22;68814;50.872;5.306;2023-05-20T03:14:51;10.40;83.20
63435;DHT22;68814;50.872;5.306;2023-05-20T03:17:20;10.40;82.70
63435;DHT22;68814;50.872;5.306;2023-05-20T03:19:46;10.40;83.10
63435;DHT22;68814;50.872;5.306;2023-05-20T03:22:11;10.30;84.00
63435;DHT22;68814;50.872;5.306;2023-05-20T03:24:37;10.30;83.50
63435;DHT22;68814;50.872;5.306;2023-05-20T03:27:03;10.30;83.90
63435;DHT22;68814;50.872;5.306;2023-05-20T03:29:29;10.20;84.60
63435;DHT22;68814;50.872;5.306;2023-05-20T03:31:55;10.20;84.80
63435;DHT22;68814;50.872;5.306;2023-05-20T03:34:21;10.20;85.50
63435;DHT22;68814;50.872;5.306;2023-05-20T03:36:47;10.20;85.40
63435;DHT22;68814;50.872;5.306;2023-05-20T03:39:12;10.20;85.70
63435;DHT22;68814;50.872;5.306;2023-05-20T03:41:38;10.20;85.70
63435;DHT22;68814;50.872;5.306;2023-05-20T03:44:04;10.20;85.80
63435;DHT22;68814;50.872;5.306;2023-05-20T03:46:29;10.20;86.10
63435;DHT22;68814;50.872;5.306;2023-05-20T03:48:56;10.20;86.20
63435;DHT22;68814;50.872;5.306;2023-05-20T03:51:22;10.20;86.30
63435;DHT22;68814;50.872;5.306;2023-05-20T03:53:48;10.20;86.50
63435;DHT22;68814;50.872;5.306;2023-05-20T03:56:13;10.20;86.00
63435;DHT22;68814;50.872;5.306;2023-05-20T03:58:39;10.10;85.90
63435;DHT22;68814;50.872;5.306;2023-05-20T04:01:05;10.20;86.00
63435;DHT22;68814;50.872;5.306;2023-05-20T04:03:30;10.20;85.70
63435;DHT22;68814;50.872;5.306;2023-05-20T04:05:56;10.20;86.70
63435;DHT22;68814;50.872;5.306;2023-05-20T04:08:22;10.20;87.00
63435;DHT22;68814;50.872;5.306;2023-05-20T04:10:54;10.20;86.30
63435;DHT22;68814;50.872;5.306;2023-05-20T04:13:20;10.20;87.10
63435;DHT22;68814;50.872;5.306;2023-05-20T04:15:46;10.20;87.00
63435;DHT22;68814;50.872;5.306;2023-05-20T04:18:12;10.20;86.80
63435;DHT22;68814;50.872;5.306;2023-05-20T04:20:38;10.20;86.70
63435;DHT22;68814;50.872;5.306;2023-05-20T04:23:06;10.20;86.60
63435;DHT22;68814;50.872;5.306;2023-05-20T04:25:31;10.20;86.50
63435;DHT22;68814;50.872;5.306;2023-05-20T04:27:58;10.30;87.30
63435;DHT22;68814;50.872;5.306;2023-05-20T04:30:24;10.30;87.00
63435;DHT22;68814;50.872;5.306;2023-05-20T04:32:50;10.30;87.10
63435;DHT22;68814;50.872;5.306;2023-05-20T04:35:16;10.30;87.70
63435;DHT22;68814;50.872;5.306;2023-05-20T04:37:42;10.30;87.50
63435;DHT22;68814;50.872;5.306;2023-05-20T04:40:17;10.40;87.30
63435;DHT22;68814;50.872;5.306;2023-05-20T04:42:43;10.40;87.80
63435;DHT22;68814;50.872;5.306;2023-05-20T04:45:10;10.40;87.70
63435;DHT22;68814;50.872;5.306;2023-05-20T04:47:37;10.50;87.70
63435;DHT22;68814;50.872;5.306;2023-05-20T04:50:07;10.50;87.70
63435;DHT22;68814;50.872;5.306;2023-05-20T04:52:36;10.60;88.00
63435;DHT22;68814;50.872;5.306;2023-05-20T04:55:04;10.60;87.60
63435;DHT22;68814;50.872;5.306;2023-05-20T04:57:30;10.70;88.00
63435;DHT22;68814;50.872;5.306;2023-05-20T04:59:59;10.70;87.60
63435;DHT22;68814;50.872;5.306;2023-05-20T05:02:24;10.80;87.20
63435;DHT22;68814;50.872;5.306;2023-05-20T05:04:50;10.90;87.40
63435;DHT22;68814;50.872;5.306;2023-05-20T05:07:16;10.90;87.30
63435;DHT22;68814;50.872;5.306;2023-05-20T05:09:42;11.00;87.40
63435;DHT22;68814;50.872;5.306;2023-05-20T05:12:07;11.00;87.40
63435;DHT22;68814;50.872;5.306;2023-05-20T05:14:33;11.10;86.90
63435;DHT22;68814;50.872;5.306;2023-05-20T05:16:59;11.10;87.20
63435;DHT22;68814;50.872;5.306;2023-05-20T05:19:24;11.20;86.80
63435;DHT22;68814;50.872;5.306;2023-05-20T05:21:50;11.30;86.70
63435;DHT22;68814;50.872;5.306;2023-05-20T05:24:15;11.40;86.60
63435;DHT22;68814;50.872;5.306;2023-05-20T05:26:41;11.40;86.60
63435;DHT22;68814;50.872;5.306;2023-05-20T05:29:08;11.50;86.60
63435;DHT22;68814;50.872;5.306;2023-05-20T05:31:34;11.60;86.00
63435;DHT22;68814;50.872;5.306;2023-05-20T05:33:59;11.70;86.30
63435;DHT22;68814;50.872;5.306;2023-05-20T05:36:25;11.80;85.90
63435;DHT22;68814;50.872;5.306;2023-05-20T05:38:51;11.90;85.60
63435;DHT22;68814;50.872;5.306;2023-05-20T05:41:17;12.00;84.60
63435;DHT22;68814;50.872;5.306;2023-05-20T05:43:42;12.00;84.80
63435;DHT22;68814;50.872;5.306;2023-05-20T05:46:08;12.20;83.70
63435;DHT22;68814;50.872;5.306;2023-05-20T05:48:35;12.20;83.70
63435;DHT22;68814;50.872;5.306;2023-05-20T05:51:01;12.40;84.90
63435;DHT22;68814;50.872;5.306;2023-05-20T05:53:26;12.50;83.90
63435;DHT22;68814;50.872;5.306;2023-05-20T05:55:52;12.60;83.60
63435;DHT22;68814;50.872;5.306;2023-05-20T05:58:18;12.70;83.50
63435;DHT22;68814;50.872;5.306;2023-05-20T06:00:43;12.80;82.70
63435;DHT22;68814;50.872;5.306;2023-05-20T06:03:09;12.90;82.30
63435;DHT22;68814;50.872;5.306;2023-05-20T06:05:35;13.00;81.80
63435;DHT22;68814;50.872;5.306;2023-05-20T06:08:01;13.10;81.40
63435;DHT22;68814;50.872;5.306;2023-05-20T06:10:27;13.20;81.20
63435;DHT22;68814;50.872;5.306;2023-05-20T06:12:52;13.30;81.50
63435;DHT22;68814;50.872;5.306;2023-05-20T06:15:18;13.50;81.10
63435;DHT22;68814;50.872;5.306;2023-05-20T06:17:44;13.50;79.80
63435;DHT22;68814;50.872;5.306;2023-05-20T06:20:10;13.70;80.10
63435;DHT22;68814;50.872;5.306;2023-05-20T06:22:36;13.80;79.00
63435;DHT22;68814;50.872;5.306;2023-05-20T06:25:01;13.90;78.60
63435;DHT22;68814;50.872;5.306;2023-05-20T06:27:27;14.00;79.20
63435;DHT22;68814;50.872;5.306;2023-05-20T06:29:53;14.10;78.30
63435;DHT22;68814;50.872;5.306;2023-05-20T06:32:18;14.20;77.80
63435;DHT22;68814;50.872;5.306;2023-05-20T06:34:44;14.30;77.60
63435;DHT22;68814;50.872;5.306;2023-05-20T06:37:10;14.50;77.20
63435;DHT22;68814;50.872;5.306;2023-05-20T06:39:36;14.50;76.60
63435;DHT22;68814;50.872;5.306;2023-05-20T06:42:02;14.70;77.80
63435;DHT22;68814;50.872;5.306;2023-05-20T06:44:29;14.80;76.20
63435;DHT22;68814;50.872;5.306;2023-05-20T06:46:55;14.90;76.20
63435;DHT22;68814;50.872;5.306;2023-05-20T06:49:20;15.00;77.10
63435;DHT22;68814;50.872;5.306;2023-05-20T06:51:47;15.20;75.10
63435;DHT22;68814;50.872;5.306;2023-05-20T06:54:12;15.30;74.40
63435;DHT22;68814;50.872;5.306;2023-05-20T06:56:38;15.50;74.60
63435;DHT22;68814;50.872;5.306;2023-05-20T06:59:04;15.50;73.20
63435;DHT22;68814;50.872;5.306;2023-05-20T07:01:29;15.60;73.30
63435;DHT22;68814;50.872;5.306;2023-05-20T07:03:55;15.60;73.30
63435;DHT22;68814;50.872;5.306;2023-05-20T07:06:22;15.80;72.70
63435;DHT22;68814;50.872;5.306;2023-05-20T07:08:48;15.90;73.00
63435;DHT22;68814;50.872;5.306;2023-05-20T07:11:13;16.00;72.30
63435;DHT22;68814;50.872;5.306;2023-05-20T07:13:39;16.10;70.90
63435;DHT22;68814;50.872;5.306;2023-05-20T07:16:05;16.20;71.90
63435;DHT22;68814;50.872;5.306;2023-05-20T07:18:30;16.30;70.10
63435;DHT22;68814;50.872;5.306;2023-05-20T07:20:56;16.40;70.20
63435;DHT22;68814;50.872;5.306;2023-05-20T07:23:23;16.60;70.20
63435;DHT22;68814;50.872;5.306;2023-05-20T07:25:48;16.60;68.20
63435;DHT22;68814;50.872;5.306;2023-05-20T07:28:17;16.70;70.00
63435;DHT22;68814;50.872;5.306;2023-05-20T07:30:42;16.90;68.30
63435;DHT22;68814;50.872;5.306;2023-05-20T07:33:17;16.90;66.30
63435;DHT22;68814;50.872;5.306;2023-05-20T07:35:43;17.00;66.90
63435;DHT22;68814;50.872;5.306;2023-05-20T07:38:10;17.10;66.30
63435;DHT22;68814;50.872;5.306;2023-05-20T07:40:37;17.20;66.60
63435;DHT22;68814;50.872;5.306;2023-05-20T07:43:05;17.30;65.80
63435;DHT22;68814;50.872;5.306;2023-05-20T07:45:33;17.40;65.70
63435;DHT22;68814;50.872;5.306;2023-05-20T07:47:59;17.50;66.40
63435;DHT22;68814;50.872;5.306;2023-05-20T07:50:25;17.60;66.70
63435;DHT22;68814;50.872;5.306;2023-05-20T07:52:51;17.80;66.40
63435;DHT22;68814;50.872;5.306;2023-05-20T07:55:17;17.90;65.40
63435;DHT22;68814;50.872;5.306;2023-05-20T07:57:42;17.90;63.90
63435;DHT22;68814;50.872;5.306;2023-05-20T08:00:09;18.00;63.50
63435;DHT22;68814;50.872;5.306;2023-05-20T08:02:36;18.00;64.50
63435;DHT22;68814;50.872;5.306;2023-05-20T08:05:02;18.10;63.80
63435;DHT22;68814;50.872;5.306;2023-05-20T08:07:27;18.20;64.80
63435;DHT22;68814;50.872;5.306;2023-05-20T08:09:53;18.30;63.70
63435;DHT22;68814;50.872;5.306;2023-05-20T08:12:19;18.50;63.50
63435;DHT22;68814;50.872;5.306;2023-05-20T08:14:44;18.60;62.10
63435;DHT22;68814;50.872;5.306;2023-05-20T08:17:10;18.70;61.50
63435;DHT22;68814;50.872;5.306;2023-05-20T08:19:36;18.80;60.40
63435;DHT22;68814;50.872;5.306;2023-05-20T08:22:01;18.90;61.90
63435;DHT22;68814;50.872;5.306;2023-05-20T08:24:27;19.00;61.70
63435;DHT22;68814;50.872;5.306;2023-05-20T08:26:53;19.00;61.10
63435;DHT22;68814;50.872;5.306;2023-05-20T08:29:18;19.10;61.80
63435;DHT22;68814;50.872;5.306;2023-05-20T08:31:44;19.40;62.50
63435;DHT22;68814;50.872;5.306;2023-05-20T08:34:10;19.60;61.50
63435;DHT22;68814;50.872;5.306;2023-05-20T08:36:35;19.70;61.00
63435;DHT22;68814;50.872;5.306;2023-05-20T08:39:01;19.80;61.20
63435;DHT22;68814;50.872;5.306;2023-05-20T08:41:27;19.90;58.60
63435;DHT22;68814;50.872;5.306;2023-05-20T08:43:53;20.00;60.40
63435;DHT22;68814;50.872;5.306;2023-05-20T08:46:20;20.00;58.30
63435;DHT22;68814;50.872;5.306;2023-05-20T08:48:48;19.90;59.10
63435;DHT22;68814;50.872;5.306;2023-05-20T08:51:15;19.90;57.90
63435;DHT22;68814;50.872;5.306;2023-05-20T08:53:42;20.00;59.50
63435;DHT22;68814;50.872;5.306;2023-05-20T08:56:08;19.90;58.90
63435;DHT22;68814;50.872;5.306;2023-05-20T08:58:35;20.10;59.40
63435;DHT22;68814;50.872;5.306;2023-05-20T09:01:01;20.30;58.80
63435;DHT22;68814;50.872;5.306;2023-05-20T09:03:27;20.40;58.90
63435;DHT22;68814;50.872;5.306;2023-05-20T09:06:02;20.70;57.70
63435;DHT22;68814;50.872;5.306;2023-05-20T09:08:29;20.90;57.80
63435;DHT22;68814;50.872;5.306;2023-05-20T09:10:55;20.90;57.20
63435;DHT22;68814;50.872;5.306;2023-05-20T09:13:23;21.00;57.30
63435;DHT22;68814;50.872;5.306;2023-05-20T09:15:48;21.20;56.90
63435;DHT22;68814;50.872;5.306;2023-05-20T09:18:14;21.40;56.90
63435;DHT22;68814;50.872;5.306;2023-05-20T09:20:40;21.40;54.90
63435;DHT22;68814;50.872;5.306;2023-05-20T09:23:08;21.40;56.70
63435;DHT22;68814;50.872;5.306;2023-05-20T09:25:35;21.40;55.70
63435;DHT22;68814;50.872;5.306;2023-05-20T09:28:03;21.20;55.60
63435;DHT22;68814;50.872;5.306;2023-05-20T09:30:31;21.30;55.50
63435;DHT22;68814;50.872;5.306;2023-05-20T09:32:59;21.40;57.50
63435;DHT22;68814;50.872;5.306;2023-05-20T09:35:26;21.70;55.80
63435;DHT22;68814;50.872;5.306;2023-05-20T09:37:57;21.80;55.50
63435;DHT22;68814;50.872;5.306;2023-05-20T09:40:27;22.10;54.90
63435;DHT22;68814;50.872;5.306;2023-05-20T09:43:00;22.30;54.00
63435;DHT22;68814;50.872;5.306;2023-05-20T09:45:27;22.40;54.30
63435;DHT22;68814;50.872;5.306;2023-05-20T09:47:53;22.50;53.50
63435;DHT22;68814;50.872;5.306;2023-05-20T09:50:20;22.60;53.90
63435;DHT22;68814;50.872;5.306;2023-05-20T09:52:48;22.70;54.50
63435;DHT22;68814;50.872;5.306;2023-05-20T09:55:19;22.80;52.20
63435;DHT22;68814;50.872;5.306;2023-05-20T09:57:45;22.90;53.90
63435;DHT22;68814;50.872;5.306;2023-05-20T10:00:12;23.10;53.10
63435;DHT22;68814;50.872;5.306;2023-05-20T10:02:43;23.20;51.10
63435;DHT22;68814;50.872;5.306;2023-05-20T10:05:14;23.30;51.60
63435;DHT22;68814;50.872;5.306;2023-05-20T10:07:54;23.60;53.70
63435;DHT22;68814;50.872;5.306;2023-05-20T10:15:57;23.90;50.40
63435;DHT22;68814;50.872;5.306;2023-05-20T10:21:24;23.90;51.40
63435;DHT22;68814;50.872;5.306;2023-05-20T10:23:50;23.70;50.40
63435;DHT22;68814;50.872;5.306;2023-05-20T10:26:17;23.80;51.60
63435;DHT22;68814;50.872;5.306;2023-05-20T10:28:43;23.90;51.20
63435;DHT22;68814;50.872;5.306;2023-05-20T10:31:22;24.00;52.00
63435;DHT22;68814;50.872;5.306;2023-05-20T10:33:52;24.00;51.40
63435;DHT22;68814;50.872;5.306;2023-05-20T10:36:28;24.30;50.50
63435;DHT22;68814;50.872;5.306;2023-05-20T10:38:58;24.50;50.60
63435;DHT22;68814;50.872;5.306;2023-05-20T10:41:27;24.80;50.10
63435;DHT22;68814;50.872;5.306;2023-05-20T10:44:05;25.00;49.80
63435;DHT22;68814;50.872;5.306;2023-05-20T10:46:32;25.10;48.90
63435;DHT22;68814;50.872;5.306;2023-05-20T10:48:58;25.10;48.80
63435;DHT22;68814;50.872;5.306;2023-05-20T10:51:24;25.20;49.20
63435;DHT22;68814;50.872;5.306;2023-05-20T10:53:54;25.10;49.40
63435;DHT22;68814;50.872;5.306;2023-05-20T10:56:22;25.30;49.80
63435;DHT22;68814;50.872;5.306;2023-05-20T10:58:48;25.40;49.50
63435;DHT22;68814;50.872;5.306;2023-05-20T11:01:15;25.50;48.80
63435;DHT22;68814;50.872;5.306;2023-05-20T11:03:44;25.60;47.40
63435;DHT22;68814;50.872;5.306;2023-05-20T11:06:14;25.70;48.90
63435;DHT22;68814;50.872;5.306;2023-05-20T11:08:40;25.90;48.50
63435;DHT22;68814;50.872;5.306;2023-05-20T11:11:06;26.20;47.50
63435;DHT22;68814;50.872;5.306;2023-05-20T11:13:32;26.30;48.40
63435;DHT22;68814;50.872;5.306;2023-05-20T11:15:59;26.30;47.50
63435;DHT22;68814;50.872;5.306;2023-05-20T11:18:28;26.30;46.50
63435;DHT22;68814;50.872;5.306;2023-05-20T11:21:01;26.40;47.20
63435;DHT22;68814;50.872;5.306;2023-05-20T11:23:27;26.30;47.40
63435;DHT22;68814;50.872;5.306;2023-05-20T11:25:55;26.10;46.80
63435;DHT22;68814;50.872;5.306;2023-05-20T11:28:22;26.10;47.70
63435;DHT22;68814;50.872;5.306;2023-05-20T11:30:49;26.40;48.00
63435;DHT22;68814;50.872;5.306;2023-05-20T11:33:16;26.90;46.60
63435;DHT22;68814;50.872;5.306;2023-05-20T11:38:11;27.20;45.30
63435;DHT22;68814;50.872;5.306;2023-05-20T11:40:42;26.90;46.60
63435;DHT22;68814;50.872;5.306;2023-05-20T11:43:10;27.00;44.80
63435;DHT22;68814;50.872;5.306;2023-05-20T11:45:40;26.90;46.40
63435;DHT22;68814;50.872;5.306;2023-05-20T11:48:06;26.60;45.60
63435;DHT22;68814;50.872;5.306;2023-05-20T11:50:36;26.50;46.00
63435;DHT22;68814;50.872;5.306;2023-05-20T11:53:06;26.60;47.00
63435;DHT22;68814;50.872;5.306;2023-05-20T11:55:32;26.60;47.20
63435;DHT22;68814;50.872;5.306;2023-05-20T11:57:59;26.90;46.50
63435;DHT22;68814;50.872;5.306;2023-05-20T12:00:25;27.20;45.90
63435;DHT22;68814;50.872;5.306;2023-05-20T12:02:51;27.50;45.20
63435;DHT22;68814;50.872;5.306;2023-05-20T12:05:16;27.60;46.80
63435;DHT22;68814;50.872;5.306;2023-05-20T12:07:42;27.60;45.00
63435;DHT22;68814;50.872;5.306;2023-05-20T12:10:09;27.90;45.70
63435;DHT22;68814;50.872;5.306;2023-05-20T12:12:35;28.30;47.80
63435;DHT22;68814;50.872;5.306;2023-05-20T12:15:05;28.80;43.90
63435;DHT22;68814;50.872;5.306;2023-05-20T12:17:48;28.80;43.30
63435;DHT22;68814;50.872;5.306;2023-05-20T12:20:15;28.90;43.50
63435;DHT22;68814;50.872;5.306;2023-05-20T12:22:42;28.70;43.30
63435;DHT22;68814;50.872;5.306;2023-05-20T12:25:11;28.60;44.00
63435;DHT22;68814;50.872;5.306;2023-05-20T12:27:37;28.50;44.30
63435;DHT22;68814;50.872;5.306;2023-05-20T12:30:03;28.10;42.60
63435;DHT22;68814;50.872;5.306;2023-05-20T12:32:29;27.70;44.10
63435;DHT22;68814;50.872;5.306;2023-05-20T12:34:55;27.90;45.50
63435;DHT22;68814;50.872;5.306;2023-05-20T12:37:21;28.30;45.10
63435;DHT22;68814;50.872;5.306;2023-05-20T12:39:46;28.70;44.30
63435;DHT22;68814;50.872;5.306;2023-05-20T12:42:12;28.80;43.40
63435;DHT22;68814;50.872;5.306;2023-05-20T12:44:38;28.90;44.30
63435;DHT22;68814;50.872;5.306;2023-05-20T12:47:03;29.30;42.40
63435;DHT22;68814;50.872;5.306;2023-05-20T12:49:29;29.40;41.10
63435;DHT22;68814;50.872;5.306;2023-05-20T12:51:55;29.60;42.80
63435;DHT22;68814;50.872;5.306;2023-05-20T12:54:20;29.90;42.40
63435;DHT22;68814;50.872;5.306;2023-05-20T12:56:46;30.20;43.10
63435;DHT22;68814;50.872;5.306;2023-05-20T12:59:13;30.30;41.50
63435;DHT22;68814;50.872;5.306;2023-05-20T13:01:39;29.90;42.90
63435;DHT22;68814;50.872;5.306;2023-05-20T13:04:05;29.80;42.70
63435;DHT22;68814;50.872;5.306;2023-05-20T13:06:32;30.20;43.10
63435;DHT22;68814;50.872;5.306;2023-05-20T13:08:58;30.20;42.00
63435;DHT22;68814;50.872;5.306;2023-05-20T13:11:23;30.00;42.00
63435;DHT22;68814;50.872;5.306;2023-05-20T13:13:49;30.10;41.70
63435;DHT22;68814;50.872;5.306;2023-05-20T13:16:15;29.90;40.60
63435;DHT22;68814;50.872;5.306;2023-05-20T13:18:42;29.40;40.60
63435;DHT22;68814;50.872;5.306;2023-05-20T13:21:08;29.20;42.60
63435;DHT22;68814;50.872;5.306;2023-05-20T13:23:34;29.30;42.40
63435;DHT22;68814;50.872;5.306;2023-05-20T13:26:00;29.80;43.60
63435;DHT22;68814;50.872;5.306;2023-05-20T13:28:25;30.20;42.20
63435;DHT22;68814;50.872;5.306;2023-05-20T13:30:51;30.40;41.40
63435;DHT22;68814;50.872;5.306;2023-05-20T13:33:17;30.30;42.60
63435;DHT22;68814;50.872;5.306;2023-05-20T13:35:43;30.70;42.80
63435;DHT22;68814;50.872;5.306;2023-05-20T13:38:08;31.00;42.30
63435;DHT22;68814;50.872;5.306;2023-05-20T13:40:34;30.70;41.20
63435;DHT22;68814;50.872;5.306;2023-05-20T13:43:00;30.70;41.00
63435;DHT22;68814;50.872;5.306;2023-05-20T13:45:25;30.40;41.60
63435;DHT22;68814;50.872;5.306;2023-05-20T13:47:52;30.00;41.70
63435;DHT22;68814;50.872;5.306;2023-05-20T13:50:18;29.80;41.90
63435;DHT22;68814;50.872;5.306;2023-05-20T13:52:44;29.10;42.20
63435;DHT22;68814;50.872;5.306;2023-05-20T13:55:09;28.80;43.40
63435;DHT22;68814;50.872;5.306;2023-05-20T13:57:35;29.20;42.50
63435;DHT22;68814;50.872;5.306;2023-05-20T14:00:01;29.50;42.30
63435;DHT22;68814;50.872;5.306;2023-05-20T14:02:26;29.60;43.20
63435;DHT22;68814;50.872;5.306;2023-05-20T14:04:52;29.50;41.10
63435;DHT22;68814;50.872;5.306;2023-05-20T14:07:17;29.40;43.20
63435;DHT22;68814;50.872;5.306;2023-05-20T14:09:43;29.00;42.30
63435;DHT22;68814;50.872;5.306;2023-05-20T14:12:09;28.80;43.80
63435;DHT22;68814;50.872;5.306;2023-05-20T14:14:35;29.10;44.50
63435;DHT22;68814;50.872;5.306;2023-05-20T14:17:00;29.10;42.40
63435;DHT22;68814;50.872;5.306;2023-05-20T14:19:26;28.80;42.80
63435;DHT22;68814;50.872;5.306;2023-05-20T14:21:52;28.60;43.90
63435;DHT22;68814;50.872;5.306;2023-05-20T14:24:17;28.80;44.20
63435;DHT22;68814;50.872;5.306;2023-05-20T14:26:43;29.10;44.10
63435;DHT22;68814;50.872;5.306;2023-05-20T14:29:08;28.90;42.50
63435;DHT22;68814;50.872;5.306;2023-05-20T14:31:34;29.20;42.80
63435;DHT22;68814;50.872;5.306;2023-05-20T14:34:00;29.20;42.70
63435;DHT22;68814;50.872;5.306;2023-05-20T14:36:26;29.00;43.10
63435;DHT22;68814;50.872;5.306;2023-05-20T14:38:51;29.20;43.90
63435;DHT22;68814;50.872;5.306;2023-05-20T14:41:17;29.70;42.90
63435;DHT22;68814;50.872;5.306;2023-05-20T14:43:43;30.00;42.20
63435;DHT22;68814;50.872;5.306;2023-05-20T14:46:08;30.10;41.10
63435;DHT22;68814;50.872;5.306;2023-05-20T14:48:34;30.10;41.20
63435;DHT22;68814;50.872;5.306;2023-05-20T14:51:00;30.30;41.40
63435;DHT22;68814;50.872;5.306;2023-05-20T14:53:26;30.30;39.70
63435;DHT22;68814;50.872;5.306;2023-05-20T14:55:51;30.30;40.10
63435;DHT22;68814;50.872;5.306;2023-05-20T14:58:17;30.60;41.60
63435;DHT22;68814;50.872;5.306;2023-05-20T15:00:42;31.00;41.90
63435;DHT22;68814;50.872;5.306;2023-05-20T15:03:08;31.00;39.80
63435;DHT22;68814;50.872;5.306;2023-05-20T15:05:34;31.20;40.20
63435;DHT22;68814;50.872;5.306;2023-05-20T15:07:59;31.80;41.20
63435;DHT22;68814;50.872;5.306;2023-05-20T15:10:25;32.40;39.80
63435;DHT22;68814;50.872;5.306;2023-05-20T15:12:51;32.60;38.30
63435;DHT22;68814;50.872;5.306;2023-05-20T15:15:19;32.20;38.80
63435;DHT22;68814;50.872;5.306;2023-05-20T15:17:44;31.70;39.50
63435;DHT22;68814;50.872;5.306;2023-05-20T15:20:10;31.20;39.90
63435;DHT22;68814;50.872;5.306;2023-05-20T15:22:36;31.50;40.60
63435;DHT22;68814;50.872;5.306;2023-05-20T15:25:02;31.70;40.80
63435;DHT22;68814;50.872;5.306;2023-05-20T15:27:28;32.00;39.60
63435;DHT22;68814;50.872;5.306;2023-05-20T15:29:53;31.70;40.30
63435;DHT22;68814;50.872;5.306;2023-05-20T15:32:19;31.30;39.60
63435;DHT22;68814;50.872;5.306;2023-05-20T15:34:45;31.20;40.50
63435;DHT22;68814;50.872;5.306;2023-05-20T15:37:10;31.30;39.90